sensor_id;sensor_type;location;lat;lon;timestamp;pressure;altitude;pressure_sealevel;temperature;humidity
22031;BME280;11179;52.106;21.024;2023-01-29T00:02:02;101381.13;;;-0.07;57.13
22031;BME280;11179;52.106;21.024;2023-01-29T00:04:31;101361.22;;;-0.14;56.93
22031;BME280;11179;52.106;21.024;2023-01-29T00:06:58;101369.81;;;-0.11;57.19
22031;BME280;11179;52.106;21.024;2023-01-29T00:09:51;101372.88;;;-0.06;57.11
22031;BME280;11179;52.106;21.024;2023-01-29T00:12:26;101367.47;;;-0.06;57.15
22031;BME280;11179;52.106;21.024;2023-01-29T00:14:51;101371.00;;;-0.05;56.87
22031;BME280;11179;52.106;21.024;2023-01-29T00:17:17;101365.44;;;-0.04;56.95
22031;BME280;11179;52.106;21.024;2023-01-29T00:19:42;101356.50;;;-0.04;56.92
22031;BME280;11179;52.106;21.024;2023-01-29T00:22:07;101348.22;;;-0.11;57.06
22031;BME280;11179;52.106;21.024;2023-01-29T00:24:33;101348.72;;;-0.07;56.99
22031;BME280;11179;52.106;21.024;2023-01-29T00:26:58;101347.34;;;-0.11;56.83
22031;BME280;11179;52.106;21.024;2023-01-29T00:29:23;101354.13;;;-0.07;57.02
22031;BME280;11179;52.106;21.024;2023-01-29T00:31:56;101339.63;;;-0.14;57.02
22031;BME280;11179;52.106;21.024;2023-01-29T00:34:22;101336.22;;;-0.16;56.85
22031;BME280;11179;52.106;21.024;2023-01-29T00:36:47;101321.34;;;-0.29;56.61
22031;BME280;11179;52.106;21.024;2023-01-29T00:39:12;101322.00;;;-0.27;56.71
22031;BME280;11179;52.106;21.024;2023-01-29T00:41:38;101335.03;;;-0.22;56.98
22031;BME280;11179;52.106;21.024;2023-01-29T00:44:22;101336.88;;;-0.23;56.89
22031;BME280;11179;52.106;21.024;2023-01-29T00:47:09;101314.59;;;-0.33;56.98
22031;BME280;11179;52.106;21.024;2023-01-29T00:49:54;101301.41;;;-0.44;56.67
22031;BME280;11179;52.106;21.024;2023-01-29T00:52:19;101312.53;;;-0.39;56.85
22031;BME280;11179;52.106;21.024;2023-01-29T00:54:52;101303.25;;;-0.44;56.79
22031;BME280;11179;52.106;21.024;2023-01-29T00:57:18;101327.03;;;-0.40;56.84
22031;BME280;11179;52.106;21.024;2023-01-29T00:59:43;101337.72;;;-0.30;56.52
22031;BME280;11179;52.106;21.024;2023-01-29T01:02:09;101316.06;;;-0.46;56.79
22031;BME280;11179;52.106;21.024;2023-01-29T01:04:53;101322.00;;;-0.35;56.71
22031;BME280;11179;52.106;21.024;2023-01-29T01:07:18;101314.56;;;-0.41;56.88
22031;BME280;11179;52.106;21.024;2023-01-29T01:09:44;101315.44;;;-0.40;56.52
22031;BME280;11179;52.106;21.024;2023-01-29T01:12:28;101308.50;;;-0.35;57.05
22031;BME280;11179;52.106;21.024;2023-01-29T01:14:53;101312.06;;;-0.34;56.79
22031;BME280;11179;52.106;21.024;2023-01-29T01:17:18;101303.97;;;-0.34;56.82
22031;BME280;11179;52.106;21.024;2023-01-29T01:19:44;101284.53;;;-0.46;56.97
22031;BME280;11179;52.106;21.024;2023-01-29T01:22:09;101297.03;;;-0.37;56.85
22031;BME280;11179;52.106;21.024;2023-01-29T01:24:35;101293.00;;;-0.41;56.69
22031;BME280;11179;52.106;21.024;2023-01-29T01:27:01;101284.91;;;-0.41;56.95
22031;BME280;11179;52.106;21.024;2023-01-29T01:29:29;101287.59;;;-0.41;56.69
22031;BME280;11179;52.106;21.024;2023-01-29T01:31:54;101294.16;;;-0.43;56.72
22031;BME280;11179;52.106;21.024;2023-01-29T01:34:20;101289.25;;;-0.48;56.62
22031;BME280;11179;52.106;21.024;2023-01-29T01:36:46;101285.53;;;-0.47;56.49
22031;BME280;11179;52.106;21.024;2023-01-29T01:39:13;101279.94;;;-0.53;56.42
22031;BME280;11179;52.106;21.024;2023-01-29T01:41:38;101273.53;;;-0.52;56.57
22031;BME280;11179;52.106;21.024;2023-01-29T01:44:04;101288.25;;;-0.47;56.65
22031;BME280;11179;52.106;21.024;2023-01-29T01:46:33;101279.63;;;-0.50;56.61
22031;BME280;11179;52.106;21.024;2023-01-29T01:49:09;101283.53;;;-0.45;56.85
22031;BME280;11179;52.106;21.024;2023-01-29T01:51:39;101279.47;;;-0.49;56.36
22031;BME280;11179;52.106;21.024;2023-01-29T01:54:13;101271.69;;;-0.52;56.55
22031;BME280;11179;52.106;21.024;2023-01-29T01:56:44;101283.69;;;-0.54;56.56
22031;BME280;11179;52.106;21.024;2023-01-29T01:59:13;101280.44;;;-0.58;56.51
22031;BME280;11179;52.106;21.024;2023-01-29T02:01:42;101280.78;;;-0.61;56.58
22031;BME280;11179;52.106;21.024;2023-01-29T02:04:12;101292.09;;;-0.58;56.44
22031;BME280;11179;52.106;21.024;2023-01-29T02:07:00;101286.53;;;-0.56;56.52
22031;BME280;11179;52.106;21.024;2023-01-29T02:09:51;101286.31;;;-0.63;56.51
22031;BME280;11179;52.106;21.024;2023-01-29T02:12:19;101295.94;;;-0.60;56.55
22031;BME280;11179;52.106;21.024;2023-01-29T02:14:45;101286.84;;;-0.67;56.85
22031;BME280;11179;52.106;21.024;2023-01-29T02:17:14;101299.34;;;-0.58;56.79
22031;BME280;11179;52.106;21.024;2023-01-29T02:19:59;101299.66;;;-0.53;56.93
22031;BME280;11179;52.106;21.024;2023-01-29T02:30:55;101283.47;;;-0.61;57.02
22031;BME280;11179;52.106;21.024;2023-01-29T02:33:39;101284.47;;;-0.62;56.99
22031;BME280;11179;52.106;21.024;2023-01-29T02:38:57;101286.50;;;-0.64;56.94
22031;BME280;11179;52.106;21.024;2023-01-29T02:41:39;101262.19;;;-0.72;57.13
22031;BME280;11179;52.106;21.024;2023-01-29T02:46:56;101257.81;;;-0.73;57.11
22031;BME280;11179;52.106;21.024;2023-01-29T02:49:51;101267.94;;;-0.67;57.13
22031;BME280;11179;52.106;21.024;2023-01-29T02:52:39;101267.13;;;-0.68;57.12
22031;BME280;11179;52.106;21.024;2023-01-29T02:55:11;101260.50;;;-0.73;57.36
22031;BME280;11179;52.106;21.024;2023-01-29T02:57:42;101261.53;;;-0.66;57.41
22031;BME280;11179;52.106;21.024;2023-01-29T03:00:14;101263.56;;;-0.68;57.40
22031;BME280;11179;52.106;21.024;2023-01-29T03:05:13;101250.88;;;-0.76;57.41
22031;BME280;11179;52.106;21.024;2023-01-29T03:07:47;101261.88;;;-0.69;57.53
22031;BME280;11179;52.106;21.024;2023-01-29T03:10:23;101249.41;;;-0.70;57.43
22031;BME280;11179;52.106;21.024;2023-01-29T03:12:53;101249.72;;;-0.73;57.46
22031;BME280;11179;52.106;21.024;2023-01-29T03:15:28;101246.34;;;-0.75;57.38
22031;BME280;11179;52.106;21.024;2023-01-29T03:18:14;101253.41;;;-0.74;57.45
22031;BME280;11179;52.106;21.024;2023-01-29T03:20:49;101246.00;;;-0.72;57.49
22031;BME280;11179;52.106;21.024;2023-01-29T03:23:42;101243.00;;;-0.69;57.54
22031;BME280;11179;52.106;21.024;2023-01-29T03:26:29;101234.84;;;-0.77;57.26
22031;BME280;11179;52.106;21.024;2023-01-29T03:29:13;101231.31;;;-0.78;57.47
22031;BME280;11179;52.106;21.024;2023-01-29T03:31:57;101246.00;;;-0.72;57.38
22031;BME280;11179;52.106;21.024;2023-01-29T03:34:40;101238.75;;;-0.72;57.24
22031;BME280;11179;52.106;21.024;2023-01-29T03:37:12;101234.91;;;-0.69;57.51
22031;BME280;11179;52.106;21.024;2023-01-29T03:39:40;101240.63;;;-0.72;57.40
22031;BME280;11179;52.106;21.024;2023-01-29T03:42:15;101238.75;;;-0.72;57.51
22031;BME280;11179;52.106;21.024;2023-01-29T03:44:53;101233.69;;;-0.75;57.48
22031;BME280;11179;52.106;21.024;2023-01-29T03:50:11;101234.22;;;-0.71;57.64
22031;BME280;11179;52.106;21.024;2023-01-29T03:52:47;101237.25;;;-0.74;57.75
22031;BME280;11179;52.106;21.024;2023-01-29T03:55:16;101238.09;;;-0.74;57.89
22031;BME280;11179;52.106;21.024;2023-01-29T04:00:33;101240.31;;;-0.69;57.69
22031;BME280;11179;52.106;21.024;2023-01-29T04:03:12;101239.44;;;-0.70;57.80
22031;BME280;11179;52.106;21.024;2023-01-29T04:05:50;101226.59;;;-0.76;57.94
22031;BME280;11179;52.106;21.024;2023-01-29T04:08:25;101229.63;;;-0.79;57.97
22031;BME280;11179;52.106;21.024;2023-01-29T04:10:53;101233.84;;;-0.76;57.82
22031;BME280;11179;52.106;21.024;2023-01-29T04:13:22;101237.25;;;-0.74;57.91
22031;BME280;11179;52.106;21.024;2023-01-29T04:15:53;101226.59;;;-0.76;57.94
22031;BME280;11179;52.106;21.024;2023-01-29T04:18:20;101222.91;;;-0.75;58.11
22031;BME280;11179;52.106;21.024;2023-01-29T04:20:45;101223.44;;;-0.71;57.87
22031;BME280;11179;52.106;21.024;2023-01-29T04:23:37;101221.41;;;-0.69;58.11
22031;BME280;11179;52.106;21.024;2023-01-29T04:26:32;101221.91;;;-0.66;58.02
22031;BME280;11179;52.106;21.024;2023-01-29T04:34:50;101210.63;;;-0.61;58.33
22031;BME280;11179;52.106;21.024;2023-01-29T04:40:24;101202.53;;;-0.69;58.27
22031;BME280;11179;52.106;21.024;2023-01-29T04:46:06;101206.09;;;-0.69;58.36
22031;BME280;11179;52.106;21.024;2023-01-29T04:51:34;101189.88;;;-0.77;58.35
22031;BME280;11179;52.106;21.024;2023-01-29T04:54:11;101204.56;;;-0.63;58.32
22031;BME280;11179;52.106;21.024;2023-01-29T04:57:15;101200.19;;;-0.64;58.27
22031;BME280;11179;52.106;21.024;2023-01-29T04:59:46;101160.53;;;-0.80;58.18
22031;BME280;11179;52.106;21.024;2023-01-29T05:02:13;101193.44;;;-0.68;58.22
22031;BME280;11179;52.106;21.024;2023-01-29T05:04:40;101183.50;;;-0.68;58.13
22031;BME280;11179;52.106;21.024;2023-01-29T05:07:10;101184.66;;;-0.70;58.29
22031;BME280;11179;52.106;21.024;2023-01-29T05:09:37;101185.53;;;-0.62;58.29
22031;BME280;11179;52.106;21.024;2023-01-29T05:12:06;101186.53;;;-0.63;58.32
22031;BME280;11179;52.106;21.024;2023-01-29T05:14:34;101183.16;;;-0.65;58.11
22031;BME280;11179;52.106;21.024;2023-01-29T05:17:02;101191.41;;;-0.66;58.15
22031;BME280;11179;52.106;21.024;2023-01-29T05:19:29;101195.13;;;-0.59;58.14
22031;BME280;11179;52.106;21.024;2023-01-29T05:21:55;101191.06;;;-0.63;58.08
22031;BME280;11179;52.106;21.024;2023-01-29T05:24:23;101190.75;;;-0.60;58.30
22031;BME280;11179;52.106;21.024;2023-01-29T05:26:51;101192.44;;;-0.59;58.32
22031;BME280;11179;52.106;21.024;2023-01-29T05:29:35;101190.75;;;-0.60;58.06
22031;BME280;11179;52.106;21.024;2023-01-29T05:32:01;101187.53;;;-0.64;58.20
22031;BME280;11179;52.106;21.024;2023-01-29T05:34:27;101182.81;;;-0.70;58.04
22031;BME280;11179;52.106;21.024;2023-01-29T05:36:53;101183.50;;;-0.68;58.13
22031;BME280;11179;52.106;21.024;2023-01-29T05:39:18;101175.56;;;-0.69;58.06
22031;BME280;11179;52.106;21.024;2023-01-29T05:41:43;101178.94;;;-0.67;58.10
22031;BME280;11179;52.106;21.024;2023-01-29T05:44:09;101152.63;;;-0.73;58.21
22031;BME280;11179;52.106;21.024;2023-01-29T05:46:36;101156.34;;;-0.66;58.21
22031;BME280;11179;52.106;21.024;2023-01-29T05:49:02;101159.22;;;-0.68;58.13
22031;BME280;11179;52.106;21.024;2023-01-29T05:51:27;101155.00;;;-0.70;58.21
22031;BME280;11179;52.106;21.024;2023-01-29T05:53:53;101150.09;;;-0.75;58.22
22031;BME280;11179;52.106;21.024;2023-01-29T05:56:18;101151.78;;;-0.74;58.52
22031;BME280;11179;52.106;21.024;2023-01-29T05:58:43;101154.31;;;-0.72;58.19
22031;BME280;11179;52.106;21.024;2023-01-29T06:01:11;101155.69;;;-0.68;58.47
22031;BME280;11179;52.106;21.024;2023-01-29T06:03:37;101161.09;;;-0.68;58.40
22031;BME280;11179;52.106;21.024;2023-01-29T06:06:03;101156.53;;;-0.68;58.51
22031;BME280;11179;52.106;21.024;2023-01-29T06:08:28;101173.03;;;-0.63;58.40
22031;BME280;11179;52.106;21.024;2023-01-29T06:10:54;101178.59;;;-0.64;58.35
22031;BME280;11179;52.106;21.024;2023-01-29T06:13:19;101164.94;;;-0.63;58.33
22031;BME280;11179;52.106;21.024;2023-01-29T06:15:44;101165.78;;;-0.62;58.15
22031;BME280;11179;52.106;21.024;2023-01-29T06:18:09;101173.72;;;-0.61;58.16
22031;BME280;11179;52.106;21.024;2023-01-29T06:20:35;101180.81;;;-0.60;58.25
22031;BME280;11179;52.106;21.024;2023-01-29T06:23:01;101175.22;;;-0.66;58.26
22031;BME280;11179;52.106;21.024;2023-01-29T06:25:26;101174.91;;;-0.63;58.14
22031;BME280;11179;52.106;21.024;2023-01-29T06:27:52;101158.19;;;-0.67;58.10
22031;BME280;11179;52.106;21.024;2023-01-29T06:30:17;101153.84;;;-0.68;58.03
22031;BME280;11179;52.106;21.024;2023-01-29T06:32:42;101173.41;;;-0.58;58.02
22031;BME280;11179;52.106;21.024;2023-01-29T06:35:08;101175.56;;;-0.53;57.89
22031;BME280;11179;52.106;21.024;2023-01-29T06:37:34;101183.03;;;-0.55;57.98
22031;BME280;11179;52.106;21.024;2023-01-29T06:40:03;101167.31;;;-0.60;58.06
22031;BME280;11179;52.106;21.024;2023-01-29T06:42:28;101159.56;;;-0.63;57.98
22031;BME280;11179;52.106;21.024;2023-01-29T06:44:54;101166.31;;;-0.59;57.97
22031;BME280;11179;52.106;21.024;2023-01-29T06:47:21;101172.72;;;-0.51;58.11
22031;BME280;11179;52.106;21.024;2023-01-29T06:49:46;101163.28;;;-0.47;57.95
22031;BME280;11179;52.106;21.024;2023-01-29T06:52:11;101177.97;;;-0.42;57.79
22031;BME280;11179;52.106;21.024;2023-01-29T06:54:37;101178.81;;;-0.41;57.84
22031;BME280;11179;52.106;21.024;2023-01-29T06:57:02;101170.91;;;-0.43;57.89
22031;BME280;11179;52.106;21.024;2023-01-29T06:59:28;101177.81;;;-0.32;57.84
22031;BME280;11179;52.106;21.024;2023-01-29T07:01:53;101176.28;;;-0.35;57.80
22031;BME280;11179;52.106;21.024;2023-01-29T07:04:19;101176.13;;;-0.33;57.88
22031;BME280;11179;52.106;21.024;2023-01-29T07:06:44;101171.91;;;-0.36;58.07
22031;BME280;11179;52.106;21.024;2023-01-29T07:09:13;101175.59;;;-0.37;57.93
22031;BME280;11179;52.106;21.024;2023-01-29T07:11:38;101172.22;;;-0.39;57.98
22031;BME280;11179;52.106;21.024;2023-01-29T07:14:04;101153.69;;;-0.42;57.73
22031;BME280;11179;52.106;21.024;2023-01-29T07:16:29;101159.41;;;-0.37;57.90
22031;BME280;11179;52.106;21.024;2023-01-29T07:18:55;101146.28;;;-0.32;57.88
22031;BME280;11179;52.106;21.024;2023-01-29T07:21:20;101142.22;;;-0.28;57.83
22031;BME280;11179;52.106;21.024;2023-01-29T07:23:46;101104.94;;;-0.48;57.25
22031;BME280;11179;52.106;21.024;2023-01-29T07:26:11;101136.00;;;-0.28;57.70
22031;BME280;11179;52.106;21.024;2023-01-29T07:28:39;101144.25;;;-0.30;57.57
22031;BME280;11179;52.106;21.024;2023-01-29T07:31:05;101143.56;;;-0.24;57.43
22031;BME280;11179;52.106;21.024;2023-01-29T07:33:32;101142.88;;;-0.26;57.34
22031;BME280;11179;52.106;21.024;2023-01-29T07:36:01;101153.50;;;-0.24;57.34
22031;BME280;11179;52.106;21.024;2023-01-29T07:38:26;101160.78;;;-0.16;57.46
22031;BME280;11179;52.106;21.024;2023-01-29T07:40:52;101152.00;;;-0.10;57.22
22031;BME280;11179;52.106;21.024;2023-01-29T07:43:17;101164.63;;;-0.11;57.06
22031;BME280;11179;52.106;21.024;2023-01-29T07:45:43;101168.88;;;-0.08;57.18
22031;BME280;11179;52.106;21.024;2023-01-29T07:48:10;101172.56;;;-0.09;57.19
22031;BME280;11179;52.106;21.024;2023-01-29T07:50:37;101168.19;;;-0.02;57.06
22031;BME280;11179;52.106;21.024;2023-01-29T07:53:02;101163.13;;;-0.05;57.04
22031;BME280;11179;52.106;21.024;2023-01-29T07:55:32;101161.25;;;0.03;57.11
22031;BME280;11179;52.106;21.024;2023-01-29T07:58:02;101168.16;;;0.14;57.16
22031;BME280;11179;52.106;21.024;2023-01-29T08:00:30;101166.13;;;0.16;57.02
22031;BME280;11179;52.106;21.024;2023-01-29T08:03:06;101159.06;;;0.23;56.95
22031;BME280;11179;52.106;21.024;2023-01-29T08:05:34;101143.53;;;0.25;56.84
22031;BME280;11179;52.106;21.024;2023-01-29T08:07:59;101143.53;;;0.25;56.82
22031;BME280;11179;52.106;21.024;2023-01-29T08:10:24;101142.50;;;0.26;56.87
22031;BME280;11179;52.106;21.024;2023-01-29T08:12:57;101134.41;;;0.26;56.70
22031;BME280;11179;52.106;21.024;2023-01-29T08:15:29;101148.22;;;0.39;56.78
22031;BME280;11179;52.106;21.024;2023-01-29T08:17:57;101145.84;;;0.36;56.46
22031;BME280;11179;52.106;21.024;2023-01-29T08:20:23;101136.41;;;0.32;56.45
22031;BME280;11179;52.106;21.024;2023-01-29T08:22:48;101142.97;;;0.38;56.40
22031;BME280;11179;52.106;21.024;2023-01-29T08:25:14;101141.81;;;0.32;56.45
22031;BME280;11179;52.106;21.024;2023-01-29T08:27:40;101127.78;;;0.29;56.56
22031;BME280;11179;52.106;21.024;2023-01-29T08:30:07;101137.91;;;0.35;56.50
22031;BME280;11179;52.106;21.024;2023-01-29T08:32:33;101144.31;;;0.42;56.19
22031;BME280;11179;52.106;21.024;2023-01-29T08:34:58;101132.66;;;0.41;56.36
22031;BME280;11179;52.106;21.024;2023-01-29T08:37:23;101131.47;;;0.44;56.24
22031;BME280;11179;52.106;21.024;2023-01-29T08:39:49;101125.06;;;0.45;56.04
22031;BME280;11179;52.106;21.024;2023-01-29T08:42:14;101125.56;;;0.48;56.14
22031;BME280;11179;52.106;21.024;2023-01-29T08:44:39;101131.63;;;0.50;56.10
22031;BME280;11179;52.106;21.024;2023-01-29T08:47:05;101137.00;;;0.59;56.07
22031;BME280;11179;52.106;21.024;2023-01-29T08:49:33;101128.03;;;0.58;55.85
22031;BME280;11179;52.106;21.024;2023-01-29T08:51:58;101140.69;;;0.66;55.97
22031;BME280;11179;52.106;21.024;2023-01-29T08:54:23;101128.38;;;0.63;56.01
22031;BME280;11179;52.106;21.024;2023-01-29T08:56:49;101134.56;;;0.72;56.01
22031;BME280;11179;52.106;21.024;2023-01-29T08:59:15;101134.56;;;0.72;55.91
22031;BME280;11179;52.106;21.024;2023-01-29T09:01:40;101128.78;;;0.83;56.03
22031;BME280;11179;52.106;21.024;2023-01-29T09:04:06;101127.06;;;0.90;55.70
22031;BME280;11179;52.106;21.024;2023-01-29T09:06:31;101107.81;;;0.85;55.86
22031;BME280;11179;52.106;21.024;2023-01-29T09:08:59;101109.28;;;0.96;55.86
22031;BME280;11179;52.106;21.024;2023-01-29T09:11:28;101102.31;;;1.01;55.81
22031;BME280;11179;52.106;21.024;2023-01-29T09:13:53;101093.19;;;1.02;55.57
22031;BME280;11179;52.106;21.024;2023-01-29T09:16:18;101088.88;;;1.16;55.61
22031;BME280;11179;52.106;21.024;2023-01-29T09:18:44;101083.66;;;1.14;55.41
22031;BME280;11179;52.106;21.024;2023-01-29T09:21:10;101073.41;;;1.25;55.46
22031;BME280;11179;52.106;21.024;2023-01-29T09:23:35;101079.22;;;1.44;55.16
22031;BME280;11179;52.106;21.024;2023-01-29T09:26:00;101073.09;;;1.65;54.97
22031;BME280;11179;52.106;21.024;2023-01-29T09:28:26;101057.34;;;1.69;54.83
22031;BME280;11179;52.106;21.024;2023-01-29T09:30:55;101052.41;;;1.72;54.78
22031;BME280;11179;52.106;21.024;2023-01-29T09:33:20;101053.81;;;1.83;54.69
22031;BME280;11179;52.106;21.024;2023-01-29T09:35:45;101062.88;;;1.90;54.46
22031;BME280;11179;52.106;21.024;2023-01-29T09:38:11;101077.06;;;1.92;54.63
22031;BME280;11179;52.106;21.024;2023-01-29T09:40:57;101064.72;;;1.89;54.69
22031;BME280;11179;52.106;21.024;2023-01-29T09:43:44;101067.63;;;2.03;54.46
22031;BME280;11179;52.106;21.024;2023-01-29T09:46:23;101069.44;;;1.96;54.62
22031;BME280;11179;52.106;21.024;2023-01-29T09:48:57;101068.59;;;1.95;54.56
22031;BME280;11179;52.106;21.024;2023-01-29T09:51:44;101069.06;;;1.99;54.80
22031;BME280;11179;52.106;21.024;2023-01-29T09:54:24;101056.81;;;2.03;54.60
22031;BME280;11179;52.106;21.024;2023-01-29T09:56:55;101053.38;;;2.09;54.67
22031;BME280;11179;52.106;21.024;2023-01-29T09:59:22;101051.69;;;2.08;54.55
22031;BME280;11179;52.106;21.024;2023-01-29T10:02:19;101045.63;;;2.20;54.43
22031;BME280;11179;52.106;21.024;2023-01-29T10:13:02;101025.91;;;2.77;54.18
22031;BME280;11179;52.106;21.024;2023-01-29T10:26:33;101017.88;;;3.05;53.72
22031;BME280;11179;52.106;21.024;2023-01-29T10:29:05;101024.06;;;2.99;53.74
22031;BME280;11179;52.106;21.024;2023-01-29T10:31:36;101001.44;;;2.92;53.66
22031;BME280;11179;52.106;21.024;2023-01-29T10:36:39;101021.38;;;2.84;53.94
22031;BME280;11179;52.106;21.024;2023-01-29T10:39:20;101008.13;;;2.75;54.05
22031;BME280;11179;52.106;21.024;2023-01-29T10:41:57;101008.97;;;2.75;54.20
22031;BME280;11179;52.106;21.024;2023-01-29T10:44:45;101005.69;;;2.80;54.22
22031;BME280;11179;52.106;21.024;2023-01-29T11:00:35;101001.00;;;2.52;54.85
22031;BME280;11179;52.106;21.024;2023-01-29T11:03:21;100996.31;;;2.61;54.97
22031;BME280;11179;52.106;21.024;2023-01-29T11:06:18;100995.47;;;2.60;55.12
22031;BME280;11179;52.106;21.024;2023-01-29T11:08:58;100981.91;;;2.60;55.25
22031;BME280;11179;52.106;21.024;2023-01-29T11:12:14;100986.22;;;2.55;55.17
22031;BME280;11179;52.106;21.024;2023-01-29T11:14:50;100978.66;;;2.50;55.14
22031;BME280;11179;52.106;21.024;2023-01-29T11:17:20;100964.84;;;2.45;55.33
22031;BME280;11179;52.106;21.024;2023-01-29T11:19:47;100971.19;;;2.52;55.66
22031;BME280;11179;52.106;21.024;2023-01-29T11:22:17;100974.16;;;2.57;55.62
22031;BME280;11179;52.106;21.024;2023-01-29T11:24:44;100966.16;;;2.49;55.68
22031;BME280;11179;52.106;21.024;2023-01-29T11:27:32;100962.22;;;2.52;55.87
22031;BME280;11179;52.106;21.024;2023-01-29T11:29:59;100957.63;;;2.52;55.64
22031;BME280;11179;52.106;21.024;2023-01-29T11:32:27;100953.50;;;2.56;55.69
22031;BME280;11179;52.106;21.024;2023-01-29T11:37:22;100937.72;;;2.45;55.91
22031;BME280;11179;52.106;21.024;2023-01-29T11:39:55;100932.97;;;2.47;55.87
22031;BME280;11179;52.106;21.024;2023-01-29T11:42:21;100918.38;;;2.48;56.32
22031;BME280;11179;52.106;21.024;2023-01-29T11:44:47;100926.69;;;2.47;56.28
22031;BME280;11179;52.106;21.024;2023-01-29T11:47:26;100920.06;;;2.49;56.31
22031;BME280;11179;52.106;21.024;2023-01-29T11:49:54;100911.28;;;2.47;56.45
22031;BME280;11179;52.106;21.024;2023-01-29T11:52:22;100912.38;;;2.53;56.20
22031;BME280;11179;52.106;21.024;2023-01-29T11:57:25;100906.38;;;2.57;56.44
22031;BME280;11179;52.106;21.024;2023-01-29T11:59:54;100898.06;;;2.59;56.57
22031;BME280;11179;52.106;21.024;2023-01-29T12:02:43;100901.22;;;2.62;56.36
22031;BME280;11179;52.106;21.024;2023-01-29T12:05:16;100905.47;;;2.50;56.63
22031;BME280;11179;52.106;21.024;2023-01-29T12:07:43;100900.06;;;2.50;56.62
22031;BME280;11179;52.106;21.024;2023-01-29T12:10:29;100892.03;;;2.42;56.62
22031;BME280;11179;52.106;21.024;2023-01-29T12:15:43;100889.97;;;2.23;56.88
22031;BME280;11179;52.106;21.024;2023-01-29T12:18:31;100885.94;;;2.19;57.22
22031;BME280;11179;52.106;21.024;2023-01-29T12:21:04;100881.88;;;2.08;57.02
22031;BME280;11179;52.106;21.024;2023-01-29T12:23:42;100868.81;;;1.97;57.45
22031;BME280;11179;52.106;21.024;2023-01-29T12:26:43;100866.13;;;1.97;57.46
22031;BME280;11179;52.106;21.024;2023-01-29T12:29:36;100868.53;;;1.92;57.46
22031;BME280;11179;52.106;21.024;2023-01-29T12:35:13;100865.13;;;1.69;58.08
22031;BME280;11179;52.106;21.024;2023-01-29T12:38:21;100867.91;;;1.75;58.22
22031;BME280;11179;52.106;21.024;2023-01-29T12:40:54;100861.94;;;1.80;58.17
22031;BME280;11179;52.106;21.024;2023-01-29T12:44:30;100862.13;;;1.78;58.06
22031;BME280;11179;52.106;21.024;2023-01-29T12:46:26;100853.34;;;1.76;58.21
22031;BME280;11179;52.106;21.024;2023-01-29T12:48:54;100850.75;;;1.68;58.32
22031;BME280;11179;52.106;21.024;2023-01-29T12:51:28;100840.00;;;1.75;58.81
22031;BME280;11179;52.106;21.024;2023-01-29T12:54:03;100837.09;;;1.76;58.60
22031;BME280;11179;52.106;21.024;2023-01-29T12:57:00;100829.47;;;1.65;58.62
22031;BME280;11179;52.106;21.024;2023-01-29T12:59:33;100827.69;;;1.72;58.92
22031;BME280;11179;52.106;21.024;2023-01-29T13:02:38;100828.25;;;1.68;58.82
22031;BME280;11179;52.106;21.024;2023-01-29T13:05:23;100818.09;;;1.55;59.04
22031;BME280;11179;52.106;21.024;2023-01-29T13:07:54;100824.25;;;1.49;59.36
22031;BME280;11179;52.106;21.024;2023-01-29T13:10:27;100816.91;;;1.43;59.55
22031;BME280;11179;52.106;21.024;2023-01-29T13:12:58;100821.72;;;1.47;59.14
22031;BME280;11179;52.106;21.024;2023-01-29T13:15:37;100835.91;;;1.49;59.35
22031;BME280;11179;52.106;21.024;2023-01-29T13:18:19;100855.34;;;1.53;59.37
22031;BME280;11179;52.106;21.024;2023-01-29T13:20:48;100847.88;;;1.55;59.43
22031;BME280;11179;52.106;21.024;2023-01-29T13:23:20;100853.53;;;1.60;59.60
22031;BME280;11179;52.106;21.024;2023-01-29T13:25:49;100847.22;;;1.53;59.81
22031;BME280;11179;52.106;21.024;2023-01-29T13:28:20;100852.63;;;1.53;60.16
22031;BME280;11179;52.106;21.024;2023-01-29T13:33:51;100837.97;;;1.47;60.44
22031;BME280;11179;52.106;21.024;2023-01-29T13:36:23;100842.16;;;1.50;60.61
22031;BME280;11179;52.106;21.024;2023-01-29T13:39:45;100857.00;;;1.54;60.93
22031;BME280;11179;52.106;21.024;2023-01-29T13:45:01;100836.75;;;1.50;60.97
22031;BME280;11179;52.106;21.024;2023-01-29T13:47:29;100835.06;;;1.49;61.07
22031;BME280;11179;52.106;21.024;2023-01-29T13:50:02;100823.34;;;1.42;61.03
22031;BME280;11179;52.106;21.024;2023-01-29T14:00:01;100807.13;;;1.27;61.64
22031;BME280;11179;52.106;21.024;2023-01-29T14:02:28;100811.50;;;1.28;61.92
22031;BME280;11179;52.106;21.024;2023-01-29T14:10:35;100798.81;;;1.14;62.34
22031;BME280;11179;52.106;21.024;2023-01-29T14:15:43;100815.88;;;1.14;62.75
22031;BME280;11179;52.106;21.024;2023-01-29T14:18:22;100824.53;;;1.10;63.18
22031;BME280;11179;52.106;21.024;2023-01-29T14:20:50;100836.13;;;1.18;62.96
22031;BME280;11179;52.106;21.024;2023-01-29T14:23:38;100843.28;;;1.11;63.48
22031;BME280;11179;52.106;21.024;2023-01-29T14:26:18;100849.34;;;1.13;63.45
22031;BME280;11179;52.106;21.024;2023-01-29T14:28:52;100846.66;;;1.13;63.53
22031;BME280;11179;52.106;21.024;2023-01-29T14:34:02;100841.91;;;1.15;63.36
22031;BME280;11179;52.106;21.024;2023-01-29T14:36:37;100825.56;;;1.09;63.58
22031;BME280;11179;52.106;21.024;2023-01-29T14:39:03;100824.06;;;1.06;63.62
22031;BME280;11179;52.106;21.024;2023-01-29T14:41:31;100828.19;;;1.02;64.11
22031;BME280;11179;52.106;21.024;2023-01-29T14:47:00;100811.84;;;0.96;63.82
22031;BME280;11179;52.106;21.024;2023-01-29T14:52:25;100807.75;;;1.00;64.15
22031;BME280;11179;52.106;21.024;2023-01-29T14:54:57;100805.53;;;1.03;64.27
22031;BME280;11179;52.106;21.024;2023-01-29T14:57:23;100808.06;;;1.05;64.12
22031;BME280;11179;52.106;21.024;2023-01-29T14:59:59;100810.34;;;1.08;64.20
22031;BME280;11179;52.106;21.024;2023-01-29T15:02:28;100810.09;;;1.03;64.07